N1221Z -KBHM
Flight info
| Callsign | N1221Z |
|---|---|
| Flight time | N/A |
| Altitude | |
| Route | |
| Aircraft | AS50/L-VGD/C |
Departure
| Time | N/A |
|---|---|
| Airport | - |
Arrival
| Time | 2026-04-28 17:07 |
|---|---|
| Airport | Birmingham-Shuttlesworth International Airport (KBHM) |
| Time | Latitude | Longitude | Altitude | Speed | Heading |
|---|---|---|---|---|---|
| 2026-04-28 17:00 | 33.37169 | -86.82995 | 1187 ft | 93 kts | 68° |
| 2026-04-28 17:00 | 33.37557 | -86.82337 | 898 ft | 95 kts | 56° |
| 2026-04-28 17:01 | 33.37931 | -86.81737 | 993 ft | 87 kts | 68° |
| 2026-04-28 17:01 | 33.38265 | -86.81093 | 946 ft | 91 kts | 67° |
| 2026-04-28 17:01 | 33.38559 | -86.80394 | 925 ft | 95 kts | 71° |
| 2026-04-28 17:01 | 33.38906 | -86.79670 | 946 ft | 107 kts | 68° |
| 2026-04-28 17:02 | 33.39337 | -86.78928 | 890 ft | 116 kts | 37° |
| 2026-04-28 17:02 | 33.40136 | -86.78788 | 819 ft | 119 kts | 354° |
| 2026-04-28 17:02 | 33.40889 | -86.79025 | 974 ft | 110 kts | 355° |
| 2026-04-28 17:02 | 33.41638 | -86.78960 | 1006 ft | 109 kts | 5° |
| 2026-04-28 17:03 | 33.43166 | -86.78788 | 1070 ft | 115 kts | 19° |
| 2026-04-28 17:03 | 33.43922 | -86.78570 | 1328 ft | 114 kts | 13° |
| 2026-04-28 17:03 | 33.44724 | -86.78394 | 1358 ft | 124 kts | 2° |
| 2026-04-28 17:04 | 33.46432 | -86.77672 | 1309 ft | 136 kts | 25° |
| 2026-04-28 17:04 | 33.47356 | -86.77294 | 1157 ft | 140 kts | 17° |
| 2026-04-28 17:05 | 33.49197 | -86.77095 | 1150 ft | 130 kts | 353° |
| 2026-04-28 17:05 | 33.50061 | -86.77131 | 1363 ft | 124 kts | 4° |
| 2026-04-28 17:05 | 33.50961 | -86.77079 | 1284 ft | 135 kts | 4° |
| 2026-04-28 17:06 | 33.52813 | -86.76797 | 1280 ft | 119 kts | 11° |
| 2026-04-28 17:06 | 33.53466 | -86.76270 | 1200 ft | 112 kts | 44° |
| 2026-04-28 17:06 | 33.54534 | -86.75255 | 1034 ft | 89 kts | 45° |
| 2026-04-28 17:07 | 33.55049 | -86.74866 | 819 ft | 85 kts | 32° |
| 2026-04-28 17:07 | 33.55581 | -86.74736 | 696 ft | 67 kts | 11° |
| 2026-04-28 17:07 | 33.55920 | -86.74735 | 629 ft | 31 kts | 5° |
| 2026-04-28 17:07 | 33.56091 | -86.74739 | 629 ft | 26 kts | 22° |
| 2026-04-28 17:08 | 33.56298 | -86.74723 | 668 ft | 33 kts | 18° |
| 2026-04-28 17:08 | 33.56417 | -86.74654 | 633 ft | 15 kts | 71° |
| 2026-04-28 17:08 | 33.56433 | -86.74555 | 634 ft | 11 kts | 95° |
| 2026-04-28 17:08 | 33.56502 | -86.74446 | 654 ft | 19 kts | 56° |
| 2026-04-28 17:09 | 33.56532 | -86.74429 | 624 ft | 0 kts | 62° |
| 2026-04-28 17:09 | 33.56534 | -86.74425 | 622 ft | 0 kts | 86° |